createdAt,value
2023-04-16T00:12:18.302Z,94.18
2023-04-16T00:40:50.675Z,92.7
2023-04-16T01:09:38.152Z,92.12
2023-04-16T01:38:22.355Z,91.85
2023-04-16T02:07:05.802Z,91.29
2023-04-16T02:35:50.676Z,94.12
2023-04-16T03:04:34.685Z,94.81
2023-04-16T03:33:07.219Z,94.11
2023-04-16T04:01:55.396Z,93.9
2023-04-16T04:30:32.673Z,92.67
2023-04-16T04:59:16.715Z,92.64
2023-04-16T05:27:56.603Z,92.62
2023-04-16T05:56:43.226Z,90.3
2023-04-16T06:25:28.847Z,93.38
2023-04-16T06:53:57.914Z,95.08
2023-04-16T07:22:41.376Z,95.19
2023-04-16T07:51:23.129Z,96.23
2023-04-16T08:20:02.754Z,95.19
2023-04-16T08:48:42.039Z,94.11
2023-04-16T09:17:16.194Z,94.25
2023-04-16T09:45:40.331Z,91.54
2023-04-16T10:14:18.717Z,90.91
2023-04-16T10:42:50.255Z,85.96
2023-04-16T11:11:25.020Z,81.7
2023-04-16T11:39:52.740Z,75.79
2023-04-16T12:11:27.867Z,74.65
2023-04-16T13:10:45.092Z,77.04
2023-04-16T13:38:53.107Z,82.18
2023-04-16T14:07:25.248Z,83.48
2023-04-16T14:35:57.288Z,80.69
2023-04-16T15:04:32.922Z,80.44
2023-04-16T15:32:57.922Z,81.17
2023-04-16T16:01:25.720Z,81.17
2023-04-16T16:29:40.357Z,88.51
2023-04-16T16:58:09.850Z,93.16
2023-04-16T17:26:43.669Z,93.75
2023-04-16T17:55:13.667Z,94.93
2023-04-16T18:23:57.466Z,96.01
2023-04-16T18:52:25.763Z,95.79
2023-04-16T19:20:57.950Z,95.66
2023-04-16T19:49:54.622Z,97.63
2023-04-16T20:18:39.556Z,98.52
2023-04-16T20:47:24.769Z,98.57
2023-04-16T21:16:22.325Z,97.73
2023-04-16T21:45:23.431Z,98.13
2023-04-16T22:14:01.649Z,98.61
2023-04-16T22:42:49.115Z,99.31
2023-04-16T23:11:33.111Z,100.65
2023-04-16T23:40:33.394Z,100.53
